Time;durP1;ratioP1;P1;durP2;ratioP2;P2;SDS_P1;SDS_P2;PMS_P1;PMS_P2;Temp;Humidity;BMP_temperature;BMP_pressure;BME280_temperature;BME280_humidity;BME280_pressure;Samples;Min_cycle;Max_cycle;Signal;HPM_P1;HPM_P2
2022/12/04 00:00:34;;;;;;;33.13;17.43;;;;;;;;;;5092519;28;20451;-73
2022/12/04 00:03:01;;;;;;;30.27;18.20;;;;;;;;;;5092990;28;20457;-72
2022/12/04 00:05:29;;;;;;;28.90;15.77;;;;;;;;;;5092361;28;20454;-73
2022/12/04 00:07:56;;;;;;;32.40;17.23;;;;;;;;;;5092827;28;20475;-73
2022/12/04 00:10:24;;;;;;;31.33;17.50;;;;;;;;;;5093000;28;20478;-73
2022/12/04 00:12:51;;;;;;;42.60;15.33;;;;;;;;;;5093041;28;20457;-73
2022/12/04 00:15:18;;;;;;;33.60;18.90;;;;;;;;;;5092332;28;20473;-73
2022/12/04 00:17:47;;;;;;;44.83;17.63;;;;;;;;;;5092782;28;20485;-73
2022/12/04 00:20:15;;;;;;;39.73;14.40;;;;;;;;;;5093128;28;20958;-73
2022/12/04 00:22:44;;;;;;;29.33;15.83;;;;;;;;;;5092960;28;20537;-73
2022/12/04 00:25:11;;;;;;;94.90;17.97;;;;;;;;;;5092365;28;20458;-73
2022/12/04 00:27:39;;;;;;;48.63;21.70;;;;;;;;;;5092707;28;20473;-73
2022/12/04 00:30:06;;;;;;;38.13;19.77;;;;;;;;;;5090036;28;20455;-73
2022/12/04 00:32:34;;;;;;;36.07;15.40;;;;;;;;;;5092807;28;20962;-73
2022/12/04 00:35:01;;;;;;;32.53;17.40;;;;;;;;;;5092205;28;20454;-73
2022/12/04 00:37:28;;;;;;;38.23;18.60;;;;;;;;;;5092729;28;20566;-73
2022/12/04 00:39:56;;;;;;;58.83;16.90;;;;;;;;;;5092638;28;20460;-73
2022/12/04 00:42:24;;;;;;;38.97;19.70;;;;;;;;;;5092680;28;20453;-73
2022/12/04 00:44:51;;;;;;;69.07;19.50;;;;;;;;;;5091946;28;20456;-73
2022/12/04 00:47:18;;;;;;;35.70;19.13;;;;;;;;;;5092727;28;20475;-73
2022/12/04 00:49:45;;;;;;;62.03;19.20;;;;;;;;;;5092602;28;20945;-73
2022/12/04 00:52:12;;;;;;;53.07;17.27;;;;;;;;;;5092403;28;20487;-73
2022/12/04 00:54:39;;;;;;;62.43;17.83;;;;;;;;;;5091856;28;20451;-73
2022/12/04 00:57:08;;;;;;;48.53;17.63;;;;;;;;;;5092535;28;20471;-73
2022/12/04 00:59:35;;;;;;;46.77;18.60;;;;;;;;;;5092347;28;20459;-73
2022/12/04 01:02:02;;;;;;;51.70;17.60;;;;;;;;;;5092799;28;20457;-73
2022/12/04 01:04:29;;;;;;;67.40;18.17;;;;;;;;;;5091886;28;20826;-73
2022/12/04 01:06:56;;;;;;;36.07;17.03;;;;;;;;;;5092430;28;20485;-73
2022/12/04 01:09:24;;;;;;;63.73;18.30;;;;;;;;;;5092571;28;20446;-73
2022/12/04 01:11:51;;;;;;;55.67;17.10;;;;;;;;;;5094350;28;20491;-73
2022/12/04 01:14:19;;;;;;;31.23;15.63;;;;;;;;;;5095587;28;20465;-73
2022/12/04 01:16:47;;;;;;;38.03;17.93;;;;;;;;;;5096122;28;20489;-73
2022/12/04 01:19:14;;;;;;;55.47;18.20;;;;;;;;;;5096483;28;20940;-73
2022/12/04 01:21:41;;;;;;;31.83;15.00;;;;;;;;;;5096261;28;20453;-73
2022/12/04 01:24:09;;;;;;;63.83;15.27;;;;;;;;;;5095616;28;20446;-73
2022/12/04 01:26:36;;;;;;;38.10;16.03;;;;;;;;;;5096041;28;20865;-73
2022/12/04 01:29:03;;;;;;;40.00;15.90;;;;;;;;;;5094337;28;20472;-72
2022/12/04 01:31:31;;;;;;;33.70;15.33;;;;;;;;;;5095931;28;20482;-73
2022/12/04 01:33:59;;;;;;;39.03;17.30;;;;;;;;;;5095546;28;20813;-73
2022/12/04 01:36:27;;;;;;;33.30;16.93;;;;;;;;;;5095894;28;20455;-73
2022/12/04 01:38:54;;;;;;;55.47;16.13;;;;;;;;;;5095773;28;20461;-73
2022/12/04 01:41:23;;;;;;;66.33;18.30;;;;;;;;;;5095820;28;20451;-73
2022/12/04 01:44:13;;;;;;;56.13;16.90;;;;;;;;;;5095196;28;20486;-73
2022/12/04 01:46:42;;;;;;;45.53;16.73;;;;;;;;;;5095677;28;20480;-73
2022/12/04 01:49:11;;;;;;;43.83;17.20;;;;;;;;;;5095728;28;20450;-73
2022/12/04 01:51:41;;;;;;;44.73;16.00;;;;;;;;;;5095363;28;20489;-73
2022/12/04 01:54:11;;;;;;;81.63;18.07;;;;;;;;;;5095169;28;20447;-73
2022/12/04 01:56:40;;;;;;;66.83;17.73;;;;;;;;;;5095436;28;20470;-73
2022/12/04 01:59:08;;;;;;;66.50;17.07;;;;;;;;;;5095697;28;20944;-73
2022/12/04 02:01:39;;;;;;;37.00;16.03;;;;;;;;;;5095567;28;20830;-73
2022/12/04 02:04:07;;;;;;;127.50;20.23;;;;;;;;;;5094737;28;20465;-72
2022/12/04 02:06:34;;;;;;;45.87;14.70;;;;;;;;;;5095237;28;20482;-72
2022/12/04 02:09:02;;;;;;;102.77;18.80;;;;;;;;;;5095225;28;20446;-73
2022/12/04 02:11:36;;;;;;;74.63;17.13;;;;;;;;;;5095264;28;20486;-73
2022/12/04 02:14:08;;;;;;;49.70;17.63;;;;;;;;;;5094842;28;20465;-73
2022/12/04 02:16:37;;;;;;;92.83;19.17;;;;;;;;;;5094851;28;20483;-72
2022/12/04 02:19:08;;;;;;;73.73;18.90;;;;;;;;;;5095255;28;20822;-73
2022/12/04 02:21:38;;;;;;;103.13;21.03;;;;;;;;;;5095571;28;20968;-73
2022/12/04 02:24:19;;;;;;;163.47;24.07;;;;;;;;;;5093978;28;20451;-73
2022/12/04 02:26:49;;;;;;;80.47;21.73;;;;;;;;;;5094732;28;20479;-72
2022/12/04 02:29:23;;;;;;;81.13;20.60;;;;;;;;;;5092517;28;20458;-73
2022/12/04 02:31:52;;;;;;;73.00;18.77;;;;;;;;;;5094948;28;20488;-73
2022/12/04 02:34:22;;;;;;;47.83;18.73;;;;;;;;;;5094362;28;20457;-73
2022/12/04 02:36:52;;;;;;;58.90;17.50;;;;;;;;;;5094695;28;20474;-73
2022/12/04 02:39:21;;;;;;;116.07;29.03;;;;;;;;;;5094587;28;20459;-73
2022/12/04 02:41:51;;;;;;;105.27;24.30;;;;;;;;;;5094584;28;20932;-73
2022/12/04 02:44:21;;;;;;;142.87;24.30;;;;;;;;;;5094045;28;20457;-73
2022/12/04 02:46:51;;;;;;;54.83;20.10;;;;;;;;;;5094626;28;20470;-73
2022/12/04 02:49:20;;;;;;;89.60;24.23;;;;;;;;;;5094654;28;20442;-73
2022/12/04 02:51:47;;;;;;;196.60;24.60;;;;;;;;;;5094300;28;20487;-73
2022/12/04 02:54:17;;;;;;;81.07;21.20;;;;;;;;;;5093841;28;20943;-73
2022/12/04 02:56:47;;;;;;;89.13;18.80;;;;;;;;;;5094333;28;20473;-73
2022/12/04 02:59:16;;;;;;;65.30;20.47;;;;;;;;;;5094359;28;20820;-73
2022/12/04 03:01:47;;;;;;;120.03;24.37;;;;;;;;;;5094370;28;20451;-73
2022/12/04 03:04:17;;;;;;;68.63;19.97;;;;;;;;;;5093736;28;20454;-73
2022/12/04 03:06:46;;;;;;;90.13;21.10;;;;;;;;;;5094066;28;21005;-73
2022/12/04 03:09:16;;;;;;;133.53;26.40;;;;;;;;;;5094136;28;20450;-73
2022/12/04 03:11:46;;;;;;;107.43;24.07;;;;;;;;;;5094101;28;20846;-73
2022/12/04 03:14:16;;;;;;;101.90;21.50;;;;;;;;;;5093511;28;20450;-73
2022/12/04 03:16:43;;;;;;;83.97;20.73;;;;;;;;;;5093809;28;20489;-73
2022/12/04 03:19:14;;;;;;;142.47;27.33;;;;;;;;;;5093999;28;20465;-73
2022/12/04 03:21:44;;;;;;;117.97;19.30;;;;;;;;;;5094130;28;20473;-73
2022/12/04 03:24:14;;;;;;;122.97;25.40;;;;;;;;;;5093780;28;20959;-73
2022/12/04 03:26:44;;;;;;;130.30;25.33;;;;;;;;;;5093775;28;20471;-72
2022/12/04 03:29:12;;;;;;;94.50;25.87;;;;;;;;;;5092110;28;20446;-72
2022/12/04 03:31:41;;;;;;;112.90;23.67;;;;;;;;;;5093602;28;20479;-73
2022/12/04 03:34:09;;;;;;;86.20;20.10;;;;;;;;;;5092708;28;20450;-73
2022/12/04 03:36:41;;;;;;;109.77;23.40;;;;;;;;;;5093217;28;20848;-73
2022/12/04 03:39:12;;;;;;;180.70;23.43;;;;;;;;;;5093950;28;20454;-73
2022/12/04 03:41:47;;;;;;;123.77;25.20;;;;;;;;;;5093484;28;20455;-73
2022/12/04 03:44:17;;;;;;;78.07;21.07;;;;;;;;;;5093043;28;20454;-73
2022/12/04 03:46:49;;;;;;;138.10;21.37;;;;;;;;;;5093397;28;20474;-73
2022/12/04 03:49:20;;;;;;;71.30;18.87;;;;;;;;;;5093734;28;20446;-73
2022/12/04 03:51:50;;;;;;;134.87;24.53;;;;;;;;;;5093351;28;20486;-73
2022/12/04 03:54:20;;;;;;;51.93;16.37;;;;;;;;;;5092713;28;20834;-73
2022/12/04 03:56:49;;;;;;;95.53;20.00;;;;;;;;;;5093065;28;20466;-73
2022/12/04 03:59:19;;;;;;;75.00;18.33;;;;;;;;;;5093304;28;20451;-73
2022/12/04 04:01:48;;;;;;;93.97;17.53;;;;;;;;;;5093224;28;20529;-73
2022/12/04 04:04:18;;;;;;;179.70;28.53;;;;;;;;;;5092691;28;21014;-73
2022/12/04 04:06:49;;;;;;;73.80;18.87;;;;;;;;;;5092968;28;20470;-72
2022/12/04 04:09:19;;;;;;;216.87;24.17;;;;;;;;;;5093279;28;20796;-73
2022/12/04 04:11:49;;;;;;;110.53;18.43;;;;;;;;;;5092996;28;20490;-73
2022/12/04 04:25:27;;;;;;;92.67;17.67;;;;;;;;;;5092406;28;20422;-73
2022/12/04 04:27:55;;;;;;;111.57;22.87;;;;;;;;;;5092617;28;20466;-73
2022/12/04 04:30:22;;;;;;;101.67;18.20;;;;;;;;;;5090519;28;20943;-73
2022/12/04 04:32:53;;;;;;;136.87;20.80;;;;;;;;;;5092862;28;20486;-73
2022/12/04 04:35:22;;;;;;;39.93;15.17;;;;;;;;;;5092280;28;20450;-73
2022/12/04 04:37:54;;;;;;;105.77;22.80;;;;;;;;;;5092618;28;21011;-73
2022/12/04 04:40:24;;;;;;;45.50;17.90;;;;;;;;;;5092878;28;20820;-73
2022/12/04 04:42:58;;;;;;;122.13;21.10;;;;;;;;;;5092774;28;20447;-73
2022/12/04 04:45:28;;;;;;;172.87;24.17;;;;;;;;;;5092206;28;20450;-73
2022/12/04 04:47:59;;;;;;;63.83;17.20;;;;;;;;;;5096549;28;20474;-73
2022/12/04 04:50:26;;;;;;;96.97;21.03;;;;;;;;;;5096898;28;20450;-73
2022/12/04 04:52:55;;;;;;;63.90;18.10;;;;;;;;;;5096650;28;20482;-73
2022/12/04 04:55:23;;;;;;;86.43;17.83;;;;;;;;;;5096261;28;20449;-73
2022/12/04 04:57:50;;;;;;;145.17;19.83;;;;;;;;;;5096505;28;20470;-73
2022/12/04 05:00:20;;;;;;;101.90;17.50;;;;;;;;;;5096723;28;20446;-73
2022/12/04 05:02:48;;;;;;;100.10;18.40;;;;;;;;;;5096704;28;20451;-73
2022/12/04 05:05:16;;;;;;;96.47;19.23;;;;;;;;;;5096011;28;20938;-73
2022/12/04 05:07:43;;;;;;;63.17;17.13;;;;;;;;;;5096434;28;20481;-73
2022/12/04 05:10:11;;;;;;;61.77;16.17;;;;;;;;;;5096485;28;20447;-73
2022/12/04 05:12:38;;;;;;;72.50;17.27;;;;;;;;;;5096734;28;20486;-73
2022/12/04 05:15:05;;;;;;;66.10;19.00;;;;;;;;;;5095888;28;20450;-73
2022/12/04 05:17:35;;;;;;;66.70;16.50;;;;;;;;;;5096304;28;20832;-73
2022/12/04 05:20:01;;;;;;;110.37;18.20;;;;;;;;;;5096321;28;20943;-73
2022/12/04 05:22:30;;;;;;;137.93;18.93;;;;;;;;;;5096498;28;20673;-73
2022/12/04 05:24:57;;;;;;;47.87;14.40;;;;;;;;;;5095729;28;20508;-73
2022/12/04 05:27:25;;;;;;;57.53;14.87;;;;;;;;;;5096118;28;20471;-73
2022/12/04 05:29:53;;;;;;;70.70;15.90;;;;;;;;;;5093607;28;20450;-73
2022/12/04 05:32:20;;;;;;;122.03;18.90;;;;;;;;;;5095921;28;20478;-73
2022/12/04 05:34:49;;;;;;;46.67;16.63;;;;;;;;;;5095360;28;20451;-73
2022/12/04 05:37:16;;;;;;;44.60;14.47;;;;;;;;;;5096069;28;20471;-73
2022/12/04 05:39:43;;;;;;;41.87;14.23;;;;;;;;;;5095872;28;20450;-73
2022/12/04 05:42:11;;;;;;;67.23;18.43;;;;;;;;;;5096027;28;20446;-73
2022/12/04 05:44:38;;;;;;;51.53;17.27;;;;;;;;;;5095219;28;20450;-73
2022/12/04 05:47:05;;;;;;;68.67;17.60;;;;;;;;;;5095731;28;20979;-73
2022/12/04 05:49:32;;;;;;;76.23;16.90;;;;;;;;;;5095859;28;20459;-73
2022/12/04 05:52:01;;;;;;;120.10;17.83;;;;;;;;;;5095758;28;20497;-73
2022/12/04 05:54:28;;;;;;;75.10;16.53;;;;;;;;;;5094899;28;20457;-73
2022/12/04 05:56:55;;;;;;;213.93;24.83;;;;;;;;;;5095360;28;20473;-73
2022/12/04 05:59:23;;;;;;;91.10;17.40;;;;;;;;;;5094544;28;20457;-73
2022/12/04 06:01:50;;;;;;;136.77;21.00;;;;;;;;;;5095416;28;20458;-74
2022/12/04 06:04:17;;;;;;;146.27;22.57;;;;;;;;;;5094915;28;20450;-73
2022/12/04 06:06:44;;;;;;;164.93;23.13;;;;;;;;;;5095233;28;20845;-73
2022/12/04 06:09:13;;;;;;;105.50;17.67;;;;;;;;;;5095465;28;20446;-73
2022/12/04 06:11:41;;;;;;;145.87;22.13;;;;;;;;;;5095397;28;20984;-73
2022/12/04 06:14:11;;;;;;;85.40;18.93;;;;;;;;;;5094690;28;21044;-73
2022/12/04 06:16:39;;;;;;;69.43;17.17;;;;;;;;;;5095060;28;20482;-73
2022/12/04 06:19:07;;;;;;;88.27;20.63;;;;;;;;;;5095381;28;20465;-73
2022/12/04 06:21:36;;;;;;;86.17;18.50;;;;;;;;;;5095302;28;20447;-73
2022/12/04 06:24:04;;;;;;;52.07;14.47;;;;;;;;;;5094722;28;20443;-73
2022/12/04 06:26:32;;;;;;;81.77;15.90;;;;;;;;;;5094853;28;20461;-73
2022/12/04 06:29:00;;;;;;;55.83;17.50;;;;;;;;;;5092736;28;20457;-72
2022/12/04 06:31:29;;;;;;;99.70;18.60;;;;;;;;;;5095040;28;20789;-73
2022/12/04 06:33:57;;;;;;;52.30;17.10;;;;;;;;;;5094224;28;20557;-73
2022/12/04 06:36:24;;;;;;;80.57;18.13;;;;;;;;;;5095204;28;20447;-73
2022/12/04 06:38:52;;;;;;;34.23;16.30;;;;;;;;;;5094876;28;20455;-73
2022/12/04 06:41:20;;;;;;;41.23;17.07;;;;;;;;;;5094918;28;20528;-73
2022/12/04 06:43:50;;;;;;;56.30;18.80;;;;;;;;;;5093720;28;20442;-73
2022/12/04 06:46:19;;;;;;;75.87;33.53;;;;;;;;;;5094748;28;20211;-73
2022/12/04 06:48:46;;;;;;;140.33;42.50;;;;;;;;;;5094731;28;20469;-73
2022/12/04 06:51:14;;;;;;;47.37;18.13;;;;;;;;;;5094679;28;20451;-73
2022/12/04 06:53:42;;;;;;;63.27;15.80;;;;;;;;;;5093914;28;20486;-72
2022/12/04 06:56:10;;;;;;;58.97;21.40;;;;;;;;;;5094760;28;20450;-72
2022/12/04 06:58:38;;;;;;;82.83;16.70;;;;;;;;;;5094447;28;20455;-73
2022/12/04 07:01:10;;;;;;;106.87;20.90;;;;;;;;;;5094447;28;20940;-72
2022/12/04 07:03:38;;;;;;;135.13;41.00;;;;;;;;;;5111672;27;20469;-73
2022/12/04 07:06:14;;;;;;;161.00;47.37;;;;;;;;;;5114457;28;20446;-73
2022/12/04 07:08:42;;;;;;;42.93;15.37;;;;;;;;;;5114353;28;20459;-72
2022/12/04 07:11:09;;;;;;;55.33;17.20;;;;;;;;;;5114790;28;20456;-72
2022/12/04 07:13:36;;;;;;;57.03;19.27;;;;;;;;;;5114057;27;20490;-73
2022/12/04 07:16:04;;;;;;;46.47;15.10;;;;;;;;;;5114384;28;20461;-73
2022/12/04 07:18:33;;;;;;;66.63;19.53;;;;;;;;;;5114255;28;20553;-72
2022/12/04 07:21:01;;;;;;;164.37;22.87;;;;;;;;;;5114410;28;20964;-72
2022/12/04 07:23:28;;;;;;;89.90;20.13;;;;;;;;;;5114121;28;20537;-71
2022/12/04 07:25:55;;;;;;;35.60;14.80;;;;;;;;;;5114237;28;20942;-73
2022/12/04 07:28:22;;;;;;;34.07;15.37;;;;;;;;;;5114383;28;20476;-73
2022/12/04 07:30:49;;;;;;;49.87;15.57;;;;;;;;;;5112893;28;20471;-72
2022/12/04 07:33:16;;;;;;;53.00;20.03;;;;;;;;;;5113964;27;20486;-72
2022/12/04 07:35:45;;;;;;;35.47;16.37;;;;;;;;;;5113727;28;20450;-73
2022/12/04 07:38:12;;;;;;;48.57;14.30;;;;;;;;;;5114450;28;20475;-73
2022/12/04 07:40:39;;;;;;;32.70;12.97;;;;;;;;;;5114283;28;20445;-72
2022/12/04 07:43:07;;;;;;;37.30;13.53;;;;;;;;;;5114104;28;20515;-72
2022/12/04 07:45:34;;;;;;;48.47;17.03;;;;;;;;;;5113338;28;20460;-72
2022/12/04 07:48:01;;;;;;;55.10;16.80;;;;;;;;;;5113742;28;20465;-72
2022/12/04 07:50:28;;;;;;;46.13;16.30;;;;;;;;;;5113973;28;20449;-72
2022/12/04 07:52:57;;;;;;;75.37;17.13;;;;;;;;;;5113695;28;20491;-73
2022/12/04 07:55:24;;;;;;;42.93;17.50;;;;;;;;;;5113447;28;20456;-72
2022/12/04 07:57:51;;;;;;;40.23;16.40;;;;;;;;;;5113666;28;20470;-72
2022/12/04 08:00:19;;;;;;;32.77;16.07;;;;;;;;;;5113903;28;20451;-73
2022/12/04 08:02:46;;;;;;;56.73;16.50;;;;;;;;;;5113738;28;20448;-72
2022/12/04 08:05:13;;;;;;;39.23;15.80;;;;;;;;;;5113277;28;20448;-72
2022/12/04 08:07:40;;;;;;;41.80;16.00;;;;;;;;;;5110873;27;20481;-73
2022/12/04 08:10:09;;;;;;;42.20;14.67;;;;;;;;;;5113685;28;20541;-73
2022/12/04 08:12:36;;;;;;;44.93;16.90;;;;;;;;;;5113285;28;20460;-72
2022/12/04 08:15:04;;;;;;;61.33;17.87;;;;;;;;;;5113018;28;20445;-72
2022/12/04 08:17:31;;;;;;;34.17;16.27;;;;;;;;;;5113163;28;20513;-72
2022/12/04 08:19:59;;;;;;;63.70;16.73;;;;;;;;;;5110851;27;20474;-71
2022/12/04 08:22:26;;;;;;;89.23;16.90;;;;;;;;;;5090762;28;20455;-72
2022/12/04 08:24:53;;;;;;;47.03;15.87;;;;;;;;;;5091004;28;20450;-72
2022/12/04 08:27:21;;;;;;;42.23;14.77;;;;;;;;;;5090678;28;20591;-71
2022/12/04 08:29:49;;;;;;;37.83;14.50;;;;;;;;;;5089757;28;20451;-72
2022/12/04 08:32:16;;;;;;;57.13;18.80;;;;;;;;;;5080363;28;20965;-72
2022/12/04 08:34:43;;;;;;;59.37;16.17;;;;;;;;;;5090566;28;20490;-71
2022/12/04 08:37:10;;;;;;;51.57;29.43;;;;;;;;;;5091218;28;20861;-72
2022/12/04 08:39:37;;;;;;;56.97;22.90;;;;;;;;;;5091046;28;20450;-72
2022/12/04 08:42:04;;;;;;;37.63;17.07;;;;;;;;;;5090941;28;20462;-72
2022/12/04 08:44:33;;;;;;;35.70;16.07;;;;;;;;;;5090883;28;21006;-73
2022/12/04 08:47:01;;;;;;;37.53;13.47;;;;;;;;;;5091243;28;20478;-72
2022/12/04 08:49:29;;;;;;;27.40;14.30;;;;;;;;;;5091358;28;20481;-72
2022/12/04 08:51:56;;;;;;;76.03;18.63;;;;;;;;;;5090982;28;20449;-72
2022/12/04 08:54:23;;;;;;;30.27;17.73;;;;;;;;;;5090618;28;20498;-72
2022/12/04 08:56:50;;;;;;;58.17;16.20;;;;;;;;;;5090871;28;20458;-72
2022/12/04 08:59:17;;;;;;;34.63;15.93;;;;;;;;;;5091125;28;20450;-73
2022/12/04 09:01:44;;;;;;;29.10;15.23;;;;;;;;;;5090926;28;20486;-72
2022/12/04 09:04:13;;;;;;;36.13;15.43;;;;;;;;;;5090589;28;20461;-72
2022/12/04 09:06:40;;;;;;;35.63;13.73;;;;;;;;;;5090454;28;20466;-72
2022/12/04 09:09:07;;;;;;;41.87;15.73;;;;;;;;;;5091158;28;20542;-72
2022/12/04 09:11:35;;;;;;;35.87;15.57;;;;;;;;;;5091225;28;20936;-72
2022/12/04 09:14:02;;;;;;;36.00;14.57;;;;;;;;;;5090206;28;21007;-72
2022/12/04 09:16:29;;;;;;;53.10;35.83;;;;;;;;;;5090835;28;20465;-72
2022/12/04 09:18:57;;;;;;;43.93;16.80;;;;;;;;;;5091148;28;20462;-72
2022/12/04 09:21:25;;;;;;;30.90;16.97;;;;;;;;;;5090445;28;20798;-72
2022/12/04 09:23:53;;;;;;;29.20;16.97;;;;;;;;;;5090208;28;20463;-72
2022/12/04 09:26:21;;;;;;;35.73;18.30;;;;;;;;;;5090724;28;20457;-73
2022/12/04 09:28:49;;;;;;;37.20;18.67;;;;;;;;;;5090149;28;20458;-72
2022/12/04 09:31:16;;;;;;;37.43;20.40;;;;;;;;;;5089447;28;20458;-73
2022/12/04 09:33:43;;;;;;;32.60;19.67;;;;;;;;;;5093731;28;20478;-71
2022/12/04 09:36:14;;;;;;;27.90;16.83;;;;;;;;;;5093990;28;20515;-72
2022/12/04 09:38:44;;;;;;;36.77;18.20;;;;;;;;;;5094553;28;20459;-72
2022/12/04 09:41:19;;;;;;;34.50;13.40;;;;;;;;;;5094651;28;20454;-72
2022/12/04 09:43:48;;;;;;;23.60;14.70;;;;;;;;;;5094161;28;20454;-72
2022/12/04 09:46:18;;;;;;;28.63;15.00;;;;;;;;;;5094477;28;20455;-72
2022/12/04 09:48:47;;;;;;;30.47;14.67;;;;;;;;;;5094008;28;20453;-72
2022/12/04 09:51:18;;;;;;;26.50;15.27;;;;;;;;;;5094784;28;20549;-73
2022/12/04 09:53:48;;;;;;;26.40;15.20;;;;;;;;;;5093894;28;20540;-73
2022/12/04 09:56:18;;;;;;;18.97;12.20;;;;;;;;;;5094345;28;20446;-73
2022/12/04 09:58:47;;;;;;;18.50;11.47;;;;;;;;;;5095294;28;20808;-73
2022/12/04 10:01:20;;;;;;;19.43;11.60;;;;;;;;;;5095292;28;20451;-71
2022/12/04 10:03:47;;;;;;;21.47;12.67;;;;;;;;;;5094946;28;20534;-72
2022/12/04 10:06:16;;;;;;;17.80;12.43;;;;;;;;;;5095512;28;20453;-72
2022/12/04 10:08:45;;;;;;;17.10;13.67;;;;;;;;;;5095354;28;20460;-72
2022/12/04 10:11:17;;;;;;;16.27;11.87;;;;;;;;;;5095367;28;20453;-72
2022/12/04 10:14:01;;;;;;;22.00;12.37;;;;;;;;;;5094772;28;20490;-72
2022/12/04 10:16:31;;;;;;;15.60;10.37;;;;;;;;;;5095242;28;20975;-72
2022/12/04 10:19:01;;;;;;;16.60;11.30;;;;;;;;;;5095500;28;20453;-73
2022/12/04 10:21:35;;;;;;;18.00;11.83;;;;;;;;;;5095514;28;21027;-73
2022/12/04 10:24:10;;;;;;;46.57;23.67;;;;;;;;;;5094901;28;20453;-72
2022/12/04 10:26:41;;;;;;;75.70;30.90;;;;;;;;;;5094955;28;20473;-72
2022/12/04 10:29:13;;;;;;;17.00;12.07;;;;;;;;;;5093912;28;20455;-72
2022/12/04 10:31:40;;;;;;;19.87;13.47;;;;;;;;;;5095228;28;20447;-72
2022/12/04 10:34:13;;;;;;;24.30;18.33;;;;;;;;;;5094584;28;20490;-71
2022/12/04 10:36:40;;;;;;;16.93;13.13;;;;;;;;;;5094589;28;20476;-71
2022/12/04 10:39:11;;;;;;;20.33;13.40;;;;;;;;;;5095041;28;20454;-72
2022/12/04 10:41:43;;;;;;;16.27;12.17;;;;;;;;;;5094936;28;20476;-72
2022/12/04 10:44:14;;;;;;;29.87;17.93;;;;;;;;;;5093906;28;20816;-72
2022/12/04 10:46:41;;;;;;;25.90;14.57;;;;;;;;;;5094577;28;20474;-72
2022/12/04 10:49:16;;;;;;;23.07;15.60;;;;;;;;;;5094902;28;20451;-72
2022/12/04 10:51:44;;;;;;;20.87;14.20;;;;;;;;;;5094873;28;20454;-72
2022/12/04 10:54:16;;;;;;;18.80;13.50;;;;;;;;;;5094147;28;20493;-72
2022/12/04 10:56:52;;;;;;;21.20;15.13;;;;;;;;;;5094636;28;20475;-72
2022/12/04 10:59:19;;;;;;;18.30;12.40;;;;;;;;;;5094537;28;20454;-72
2022/12/04 11:01:46;;;;;;;21.13;14.70;;;;;;;;;;5094484;28;20447;-72
2022/12/04 11:04:20;;;;;;;49.67;32.33;;;;;;;;;;5093877;28;20450;-72
2022/12/04 11:06:49;;;;;;;21.80;14.20;;;;;;;;;;5094211;28;21003;-72
2022/12/04 11:09:21;;;;;;;15.73;12.57;;;;;;;;;;5094241;28;20447;-72
2022/12/04 11:11:49;;;;;;;18.97;13.07;;;;;;;;;;5094215;28;20507;-72
2022/12/04 11:14:19;;;;;;;19.33;14.27;;;;;;;;;;5093635;28;20493;-72
2022/12/04 11:16:48;;;;;;;18.03;13.53;;;;;;;;;;5093934;28;20484;-72
2022/12/04 11:19:23;;;;;;;17.70;12.80;;;;;;;;;;5094118;28;21016;-72
2022/12/04 11:21:50;;;;;;;20.70;14.50;;;;;;;;;;5094093;28;20452;-74
2022/12/04 11:24:22;;;;;;;19.97;12.30;;;;;;;;;;5093483;28;20450;-72
2022/12/04 11:26:49;;;;;;;17.53;12.50;;;;;;;;;;5093727;28;20493;-71
2022/12/04 11:29:19;;;;;;;15.97;12.53;;;;;;;;;;5092083;28;20549;-71
2022/12/04 11:31:50;;;;;;;21.87;14.40;;;;;;;;;;5093983;28;20450;-72
2022/12/04 11:34:19;;;;;;;21.00;14.50;;;;;;;;;;5093159;28;20518;-71
2022/12/04 11:36:51;;;;;;;20.40;14.00;;;;;;;;;;5093611;28;20493;-71
2022/12/04 11:39:19;;;;;;;20.57;14.03;;;;;;;;;;5093534;28;20496;-71
2022/12/04 11:41:47;;;;;;;22.60;15.97;;;;;;;;;;5093776;28;20457;-71
2022/12/04 11:44:25;;;;;;;22.80;17.30;;;;;;;;;;5093300;28;20456;-71
2022/12/04 11:46:53;;;;;;;26.57;15.23;;;;;;;;;;5093393;28;20486;-71
2022/12/04 11:49:22;;;;;;;27.47;18.17;;;;;;;;;;5093404;28;20455;-72
2022/12/04 11:51:53;;;;;;;19.97;15.50;;;;;;;;;;5093237;28;20810;-72
2022/12/04 11:54:25;;;;;;;23.00;17.27;;;;;;;;;;5093253;28;21015;-72
2022/12/04 11:56:56;;;;;;;23.67;18.00;;;;;;;;;;5092473;28;20475;-72
2022/12/04 11:59:32;;;;;;;21.63;16.20;;;;;;;;;;5093182;28;20450;-72
2022/12/04 12:02:02;;;;;;;29.80;20.43;;;;;;;;;;5093549;28;20480;-71
2022/12/04 12:04:50;;;;;;;25.43;17.30;;;;;;;;;;5093104;28;20443;-72
2022/12/04 12:07:24;;;;;;;25.67;17.33;;;;;;;;;;5093170;28;20485;-72
2022/12/04 12:09:56;;;;;;;27.10;17.90;;;;;;;;;;5093126;28;20451;-72
2022/12/04 12:12:26;;;;;;;33.83;19.97;;;;;;;;;;5093130;28;20465;-72
2022/12/04 12:15:03;;;;;;;26.17;18.10;;;;;;;;;;5092452;28;20478;-72
2022/12/04 12:17:34;;;;;;;30.90;19.93;;;;;;;;;;5092864;28;20486;-72
2022/12/04 12:20:10;;;;;;;30.90;19.30;;;;;;;;;;5093114;28;20458;-72
2022/12/04 12:22:43;;;;;;;28.13;17.50;;;;;;;;;;5093169;28;20496;-72
2022/12/04 12:25:15;;;;;;;33.83;19.43;;;;;;;;;;5092531;28;20451;-72
2022/12/04 12:27:55;;;;;;;27.20;18.53;;;;;;;;;;5092949;28;20474;-72
2022/12/04 12:30:25;;;;;;;30.67;21.20;;;;;;;;;;5091053;28;20450;-72
2022/12/04 12:33:00;;;;;;;35.80;22.60;;;;;;;;;;5092911;28;20468;-72
2022/12/04 12:35:30;;;;;;;30.83;22.37;;;;;;;;;;5092169;28;20485;-72
2022/12/04 12:38:00;;;;;;;36.90;25.98;;;;;;;;;;5089778;28;20455;-72
2022/12/04 12:40:31;;;;;;;38.67;27.37;;;;;;;;;;5092971;28;20211;-72
2022/12/04 12:43:01;;;;;;;45.23;26.70;;;;;;;;;;5092900;28;20458;-72
2022/12/04 12:45:34;;;;;;;35.30;22.13;;;;;;;;;;5092406;28;20954;-72
2022/12/04 12:48:07;;;;;;;34.43;24.60;;;;;;;;;;5092707;28;20510;-72
2022/12/04 12:50:39;;;;;;;48.80;32.47;;;;;;;;;;5092742;28;20973;-71
2022/12/04 12:53:09;;;;;;;60.17;33.27;;;;;;;;;;5092549;28;20446;-72
2022/12/04 12:55:41;;;;;;;40.27;25.90;;;;;;;;;;5091933;28;20482;-72
2022/12/04 12:58:13;;;;;;;45.73;27.83;;;;;;;;;;5092474;28;20477;-72
2022/12/04 13:00:44;;;;;;;39.53;23.83;;;;;;;;;;5092527;28;20450;-72
2022/12/04 13:03:19;;;;;;;37.27;22.20;;;;;;;;;;5092265;28;20458;-72
2022/12/04 13:05:49;;;;;;;34.27;23.87;;;;;;;;;;5092394;28;20954;-72
2022/12/04 13:08:20;;;;;;;43.73;27.53;;;;;;;;;;5095535;28;20482;-72
2022/12/04 13:10:49;;;;;;;41.13;28.27;;;;;;;;;;5096556;28;20457;-72
2022/12/04 13:13:18;;;;;;;39.43;25.90;;;;;;;;;;5096607;28;20450;-72
2022/12/04 13:15:49;;;;;;;47.07;27.90;;;;;;;;;;5095763;28;20516;-72
2022/12/04 13:18:21;;;;;;;47.70;26.87;;;;;;;;;;5093263;28;21007;-72
2022/12/04 13:20:52;;;;;;;37.00;21.43;;;;;;;;;;5096230;28;20450;-72
2022/12/04 13:23:25;;;;;;;35.17;21.07;;;;;;;;;;5096271;28;20462;-71
2022/12/04 13:25:56;;;;;;;25.60;19.80;;;;;;;;;;5095180;28;20457;-72
2022/12/04 13:28:35;;;;;;;29.23;20.63;;;;;;;;;;5096032;28;20477;-72
2022/12/04 13:31:07;;;;;;;31.70;21.93;;;;;;;;;;5094117;28;20457;-71
2022/12/04 13:33:41;;;;;;;28.60;20.40;;;;;;;;;;5095325;28;20446;-71
2022/12/04 13:36:41;;;;;;;30.33;20.03;;;;;;;;;;5095712;28;20492;-72
2022/12/04 13:39:28;;;;;;;30.83;19.00;;;;;;;;;;5033492;28;20457;-72
2022/12/04 13:41:58;;;;;;;32.30;19.33;;;;;;;;;;5033007;28;20830;-72
2022/12/04 13:44:26;;;;;;;31.00;21.00;;;;;;;;;;5070839;28;20468;-72
2022/12/04 13:46:58;;;;;;;28.40;18.87;;;;;;;;;;5095596;28;20462;-72
2022/12/04 13:49:26;;;;;;;46.40;26.97;;;;;;;;;;5095704;28;20456;-72
2022/12/04 13:51:54;;;;;;;39.80;21.50;;;;;;;;;;5094680;28;20457;-71
2022/12/04 13:54:24;;;;;;;43.63;26.00;;;;;;;;;;5094413;28;20466;-72
2022/12/04 13:56:52;;;;;;;31.43;21.10;;;;;;;;;;5095780;28;20470;-72
2022/12/04 13:59:23;;;;;;;38.27;21.80;;;;;;;;;;5095744;28;20453;-72
2022/12/04 14:01:51;;;;;;;35.67;22.73;;;;;;;;;;5095489;28;20980;-72
2022/12/04 14:04:27;;;;;;;44.33;27.07;;;;;;;;;;5095029;28;20489;-72
2022/12/04 14:06:55;;;;;;;72.47;39.50;;;;;;;;;;5095229;28;20474;-72
2022/12/04 14:09:25;;;;;;;45.27;28.10;;;;;;;;;;5095520;28;20456;-72
2022/12/04 14:11:54;;;;;;;51.23;25.37;;;;;;;;;;5095216;28;20450;-72
2022/12/04 14:14:26;;;;;;;47.70;26.87;;;;;;;;;;5094829;28;20450;-72
2022/12/04 14:16:54;;;;;;;66.10;31.93;;;;;;;;;;5094995;28;20482;-72
2022/12/04 14:19:30;;;;;;;63.80;34.00;;;;;;;;;;5094170;28;20451;-72
2022/12/04 14:21:57;;;;;;;84.07;45.97;;;;;;;;;;5095151;28;20462;-72
2022/12/04 14:24:30;;;;;;;70.53;37.70;;;;;;;;;;5094584;28;20457;-72
2022/12/04 14:26:58;;;;;;;63.83;36.57;;;;;;;;;;5095094;28;20474;-72
2022/12/04 14:29:40;;;;;;;49.43;29.47;;;;;;;;;;5093445;28;20504;-72
2022/12/04 14:32:09;;;;;;;53.83;30.83;;;;;;;;;;5092678;28;20461;-72
2022/12/04 14:34:38;;;;;;;47.90;28.57;;;;;;;;;;5094246;28;20486;-72
2022/12/04 14:37:05;;;;;;;45.87;27.60;;;;;;;;;;5094993;28;21003;-72
2022/12/04 14:39:35;;;;;;;43.60;26.70;;;;;;;;;;5094976;28;20456;-72